sensor_id;sensor_type;location;lat;lon;timestamp;P1;durP1;ratioP1;P2;durP2;ratioP2
57087;SDS011;42965;52.846;6.614;2022-11-18T00:00:53;30.73;;;22.67;;
57087;SDS011;42965;52.846;6.614;2022-11-18T00:03:20;37.08;;;24.80;;
57087;SDS011;42965;52.846;6.614;2022-11-18T00:05:53;40.33;;;27.08;;
57087;SDS011;42965;52.846;6.614;2022-11-18T00:08:23;38.53;;;25.40;;
57087;SDS011;42965;52.846;6.614;2022-11-18T00:10:51;39.67;;;25.70;;
57087;SDS011;42965;52.846;6.614;2022-11-18T00:13:18;43.25;;;27.05;;
57087;SDS011;42965;52.846;6.614;2022-11-18T00:16:04;42.92;;;27.10;;
57087;SDS011;42965;52.846;6.614;2022-11-18T00:18:34;43.30;;;26.52;;
57087;SDS011;42965;52.846;6.614;2022-11-18T00:21:05;46.45;;;27.13;;
57087;SDS011;42965;52.846;6.614;2022-11-18T00:23:36;36.13;;;24.58;;
57087;SDS011;42965;52.846;6.614;2022-11-18T00:26:05;43.90;;;27.15;;
57087;SDS011;42965;52.846;6.614;2022-11-18T00:28:38;32.40;;;23.00;;
57087;SDS011;42965;52.846;6.614;2022-11-18T00:31:07;43.42;;;25.00;;
57087;SDS011;42965;52.846;6.614;2022-11-18T00:33:35;46.58;;;26.45;;
57087;SDS011;42965;52.846;6.614;2022-11-18T00:36:03;48.05;;;27.38;;
57087;SDS011;42965;52.846;6.614;2022-11-18T00:38:31;45.78;;;27.30;;
57087;SDS011;42965;52.846;6.614;2022-11-18T00:41:01;47.30;;;26.92;;
57087;SDS011;42965;52.846;6.614;2022-11-18T00:43:29;51.45;;;28.02;;
57087;SDS011;42965;52.846;6.614;2022-11-18T00:45:56;53.05;;;31.20;;
57087;SDS011;42965;52.846;6.614;2022-11-18T00:48:22;56.00;;;27.48;;
57087;SDS011;42965;52.846;6.614;2022-11-18T00:50:50;42.35;;;23.80;;
57087;SDS011;42965;52.846;6.614;2022-11-18T00:53:17;52.00;;;29.95;;
57087;SDS011;42965;52.846;6.614;2022-11-18T00:55:44;55.17;;;29.45;;
57087;SDS011;42965;52.846;6.614;2022-11-18T00:58:11;61.22;;;30.25;;
57087;SDS011;42965;52.846;6.614;2022-11-18T01:00:40;35.88;;;20.50;;
57087;SDS011;42965;52.846;6.614;2022-11-18T01:03:07;55.85;;;28.63;;
57087;SDS011;42965;52.846;6.614;2022-11-18T01:05:35;56.10;;;28.23;;
57087;SDS011;42965;52.846;6.614;2022-11-18T01:08:03;59.83;;;30.67;;
57087;SDS011;42965;52.846;6.614;2022-11-18T01:10:34;64.30;;;31.33;;
57087;SDS011;42965;52.846;6.614;2022-11-18T01:13:01;66.25;;;32.47;;
57087;SDS011;42965;52.846;6.614;2022-11-18T01:15:53;45.75;;;26.63;;
57087;SDS011;42965;52.846;6.614;2022-11-18T01:18:25;60.28;;;28.48;;
57087;SDS011;42965;52.846;6.614;2022-11-18T01:21:02;62.47;;;31.48;;
57087;SDS011;42965;52.846;6.614;2022-11-18T01:23:29;52.53;;;28.80;;
57087;SDS011;42965;52.846;6.614;2022-11-18T01:25:55;49.78;;;27.33;;
57087;SDS011;42965;52.846;6.614;2022-11-18T01:28:23;61.88;;;31.33;;
57087;SDS011;42965;52.846;6.614;2022-11-18T01:30:49;48.35;;;27.17;;
57087;SDS011;42965;52.846;6.614;2022-11-18T01:33:17;48.85;;;26.42;;
57087;SDS011;42965;52.846;6.614;2022-11-18T01:35:44;55.75;;;30.05;;
57087;SDS011;42965;52.846;6.614;2022-11-18T01:38:11;51.75;;;28.92;;
57087;SDS011;42965;52.846;6.614;2022-11-18T01:40:38;68.30;;;33.58;;
57087;SDS011;42965;52.846;6.614;2022-11-18T01:43:11;60.97;;;31.42;;
57087;SDS011;42965;52.846;6.614;2022-11-18T01:45:42;66.57;;;32.55;;
57087;SDS011;42965;52.846;6.614;2022-11-18T01:48:12;59.55;;;27.88;;
57087;SDS011;42965;52.846;6.614;2022-11-18T01:50:45;61.30;;;29.27;;
57087;SDS011;42965;52.846;6.614;2022-11-18T01:53:17;61.83;;;29.65;;
57087;SDS011;42965;52.846;6.614;2022-11-18T01:55:55;56.30;;;30.73;;
57087;SDS011;42965;52.846;6.614;2022-11-18T01:58:32;51.85;;;28.63;;
57087;SDS011;42965;52.846;6.614;2022-11-18T02:01:05;56.17;;;26.98;;
57087;SDS011;42965;52.846;6.614;2022-11-18T02:03:34;58.83;;;30.17;;
57087;SDS011;42965;52.846;6.614;2022-11-18T02:06:01;48.17;;;27.92;;
57087;SDS011;42965;52.846;6.614;2022-11-18T02:08:30;60.60;;;30.70;;
57087;SDS011;42965;52.846;6.614;2022-11-18T02:10:59;47.47;;;28.48;;
57087;SDS011;42965;52.846;6.614;2022-11-18T02:13:25;51.95;;;27.83;;
57087;SDS011;42965;52.846;6.614;2022-11-18T02:15:56;57.30;;;28.77;;
57087;SDS011;42965;52.846;6.614;2022-11-18T02:18:31;57.92;;;30.45;;
57087;SDS011;42965;52.846;6.614;2022-11-18T02:21:35;51.10;;;28.00;;
57087;SDS011;42965;52.846;6.614;2022-11-18T02:29:41;49.70;;;26.92;;
57087;SDS011;42965;52.846;6.614;2022-11-18T02:32:15;51.15;;;28.73;;
57087;SDS011;42965;52.846;6.614;2022-11-18T02:34:48;55.88;;;30.52;;
57087;SDS011;42965;52.846;6.614;2022-11-18T02:40:06;56.78;;;30.02;;
57087;SDS011;42965;52.846;6.614;2022-11-18T02:45:35;61.40;;;31.17;;
57087;SDS011;42965;52.846;6.614;2022-11-18T02:48:05;50.50;;;28.42;;
57087;SDS011;42965;52.846;6.614;2022-11-18T02:50:34;58.97;;;32.20;;
57087;SDS011;42965;52.846;6.614;2022-11-18T02:53:04;55.33;;;30.52;;
57087;SDS011;42965;52.846;6.614;2022-11-18T02:55:33;53.85;;;28.48;;
57087;SDS011;42965;52.846;6.614;2022-11-18T02:58:02;49.42;;;30.02;;
57087;SDS011;42965;52.846;6.614;2022-11-18T03:00:30;44.88;;;27.58;;
57087;SDS011;42965;52.846;6.614;2022-11-18T03:02:57;52.72;;;28.95;;
57087;SDS011;42965;52.846;6.614;2022-11-18T03:05:27;49.33;;;28.95;;
57087;SDS011;42965;52.846;6.614;2022-11-18T03:08:04;37.95;;;23.67;;
57087;SDS011;42965;52.846;6.614;2022-11-18T03:10:38;53.85;;;29.73;;
57087;SDS011;42965;52.846;6.614;2022-11-18T03:13:10;60.90;;;30.40;;
57087;SDS011;42965;52.846;6.614;2022-11-18T03:16:03;51.05;;;28.20;;
57087;SDS011;42965;52.846;6.614;2022-11-18T03:18:55;54.13;;;29.52;;
57087;SDS011;42965;52.846;6.614;2022-11-18T03:21:42;52.53;;;29.42;;
57087;SDS011;42965;52.846;6.614;2022-11-18T03:24:21;53.20;;;29.77;;
57087;SDS011;42965;52.846;6.614;2022-11-18T03:26:56;45.28;;;29.60;;
57087;SDS011;42965;52.846;6.614;2022-11-18T03:29:53;50.22;;;27.00;;
57087;SDS011;42965;52.846;6.614;2022-11-18T03:32:25;54.60;;;29.98;;
57087;SDS011;42965;52.846;6.614;2022-11-18T03:34:56;54.67;;;29.17;;
57087;SDS011;42965;52.846;6.614;2022-11-18T03:37:26;49.33;;;29.55;;
57087;SDS011;42965;52.846;6.614;2022-11-18T03:39:56;49.58;;;28.02;;
57087;SDS011;42965;52.846;6.614;2022-11-18T03:42:28;44.92;;;26.10;;
57087;SDS011;42965;52.846;6.614;2022-11-18T03:45:04;45.03;;;27.05;;
57087;SDS011;42965;52.846;6.614;2022-11-18T03:47:45;45.88;;;29.45;;
57087;SDS011;42965;52.846;6.614;2022-11-18T03:50:37;47.92;;;29.02;;
57087;SDS011;42965;52.846;6.614;2022-11-18T03:53:07;52.47;;;28.35;;
57087;SDS011;42965;52.846;6.614;2022-11-18T03:55:37;47.47;;;29.40;;
57087;SDS011;42965;52.846;6.614;2022-11-18T03:58:14;47.30;;;29.05;;
57087;SDS011;42965;52.846;6.614;2022-11-18T04:00:52;45.05;;;26.40;;
57087;SDS011;42965;52.846;6.614;2022-11-18T04:03:29;38.95;;;25.40;;
57087;SDS011;42965;52.846;6.614;2022-11-18T04:05:59;44.05;;;26.60;;
57087;SDS011;42965;52.846;6.614;2022-11-18T04:08:33;35.47;;;21.75;;
57087;SDS011;42965;52.846;6.614;2022-11-18T04:11:16;44.35;;;28.42;;
57087;SDS011;42965;52.846;6.614;2022-11-18T04:14:05;44.72;;;27.92;;
57087;SDS011;42965;52.846;6.614;2022-11-18T04:16:42;44.88;;;27.15;;
57087;SDS011;42965;52.846;6.614;2022-11-18T04:19:10;48.67;;;30.20;;
57087;SDS011;42965;52.846;6.614;2022-11-18T04:21:36;45.58;;;27.90;;
57087;SDS011;42965;52.846;6.614;2022-11-18T04:24:04;50.67;;;28.30;;
57087;SDS011;42965;52.846;6.614;2022-11-18T04:26:31;46.08;;;27.85;;
57087;SDS011;42965;52.846;6.614;2022-11-18T04:28:57;42.70;;;27.65;;
57087;SDS011;42965;52.846;6.614;2022-11-18T04:31:23;46.83;;;27.35;;
57087;SDS011;42965;52.846;6.614;2022-11-18T04:33:52;46.75;;;25.30;;
57087;SDS011;42965;52.846;6.614;2022-11-18T04:36:19;43.90;;;26.35;;
57087;SDS011;42965;52.846;6.614;2022-11-18T04:38:45;46.28;;;27.80;;
57087;SDS011;42965;52.846;6.614;2022-11-18T04:41:12;45.42;;;28.17;;
57087;SDS011;42965;52.846;6.614;2022-11-18T04:43:38;45.53;;;27.08;;
57087;SDS011;42965;52.846;6.614;2022-11-18T04:46:05;39.33;;;25.60;;
57087;SDS011;42965;52.846;6.614;2022-11-18T04:48:31;39.53;;;23.50;;
57087;SDS011;42965;52.846;6.614;2022-11-18T04:51:02;44.00;;;26.02;;
57087;SDS011;42965;52.846;6.614;2022-11-18T04:53:31;39.78;;;22.58;;
57087;SDS011;42965;52.846;6.614;2022-11-18T04:56:05;43.90;;;25.92;;
57087;SDS011;42965;52.846;6.614;2022-11-18T04:58:32;45.95;;;29.17;;
57087;SDS011;42965;52.846;6.614;2022-11-18T05:00:58;46.05;;;26.50;;
57087;SDS011;42965;52.846;6.614;2022-11-18T05:03:25;42.75;;;25.00;;
57087;SDS011;42965;52.846;6.614;2022-11-18T05:05:51;44.70;;;27.00;;
57087;SDS011;42965;52.846;6.614;2022-11-18T05:08:17;45.13;;;26.13;;
57087;SDS011;42965;52.846;6.614;2022-11-18T05:10:43;45.22;;;26.88;;
57087;SDS011;42965;52.846;6.614;2022-11-18T05:13:13;43.35;;;25.98;;
57087;SDS011;42965;52.846;6.614;2022-11-18T05:15:40;41.13;;;24.15;;
57087;SDS011;42965;52.846;6.614;2022-11-18T05:18:08;40.88;;;25.10;;
57087;SDS011;42965;52.846;6.614;2022-11-18T05:20:36;43.13;;;24.88;;
57087;SDS011;42965;52.846;6.614;2022-11-18T05:23:02;45.40;;;26.08;;
57087;SDS011;42965;52.846;6.614;2022-11-18T05:25:30;38.85;;;21.20;;
57087;SDS011;42965;52.846;6.614;2022-11-18T05:27:56;38.67;;;24.83;;
57087;SDS011;42965;52.846;6.614;2022-11-18T05:30:23;46.00;;;25.23;;
57087;SDS011;42965;52.846;6.614;2022-11-18T05:32:49;47.85;;;26.05;;
57087;SDS011;42965;52.846;6.614;2022-11-18T05:35:15;44.60;;;25.63;;
57087;SDS011;42965;52.846;6.614;2022-11-18T05:37:41;48.88;;;25.92;;
57087;SDS011;42965;52.846;6.614;2022-11-18T05:40:08;41.65;;;26.02;;
57087;SDS011;42965;52.846;6.614;2022-11-18T05:42:34;38.72;;;21.23;;
57087;SDS011;42965;52.846;6.614;2022-11-18T05:45:19;40.17;;;24.40;;
57087;SDS011;42965;52.846;6.614;2022-11-18T05:47:45;40.67;;;25.02;;
57087;SDS011;42965;52.846;6.614;2022-11-18T05:50:29;42.45;;;24.48;;
57087;SDS011;42965;52.846;6.614;2022-11-18T05:52:56;52.28;;;26.55;;
57087;SDS011;42965;52.846;6.614;2022-11-18T05:55:23;41.70;;;25.50;;
57087;SDS011;42965;52.846;6.614;2022-11-18T05:57:54;42.50;;;24.08;;
57087;SDS011;42965;52.846;6.614;2022-11-18T06:00:20;48.88;;;24.00;;
57087;SDS011;42965;52.846;6.614;2022-11-18T06:02:47;42.75;;;23.15;;
57087;SDS011;42965;52.846;6.614;2022-11-18T06:05:16;45.83;;;24.05;;
57087;SDS011;42965;52.846;6.614;2022-11-18T06:07:43;41.63;;;23.67;;
57087;SDS011;42965;52.846;6.614;2022-11-18T06:10:12;44.00;;;24.67;;
57087;SDS011;42965;52.846;6.614;2022-11-18T06:12:48;37.83;;;23.08;;
57087;SDS011;42965;52.846;6.614;2022-11-18T06:15:22;38.53;;;24.73;;
57087;SDS011;42965;52.846;6.614;2022-11-18T06:18:01;41.70;;;23.60;;
57087;SDS011;42965;52.846;6.614;2022-11-18T06:20:31;38.35;;;22.67;;
57087;SDS011;42965;52.846;6.614;2022-11-18T06:23:00;45.10;;;24.92;;
57087;SDS011;42965;52.846;6.614;2022-11-18T06:25:26;40.90;;;21.83;;
57087;SDS011;42965;52.846;6.614;2022-11-18T06:27:55;41.30;;;23.23;;
57087;SDS011;42965;52.846;6.614;2022-11-18T06:30:23;39.88;;;23.88;;
57087;SDS011;42965;52.846;6.614;2022-11-18T06:32:50;46.22;;;24.15;;
57087;SDS011;42965;52.846;6.614;2022-11-18T06:35:16;46.08;;;24.35;;
57087;SDS011;42965;52.846;6.614;2022-11-18T06:37:42;46.45;;;24.63;;
57087;SDS011;42965;52.846;6.614;2022-11-18T06:40:09;44.05;;;25.20;;
57087;SDS011;42965;52.846;6.614;2022-11-18T06:42:36;44.10;;;24.90;;
57087;SDS011;42965;52.846;6.614;2022-11-18T06:45:21;27.00;;;15.18;;
57087;SDS011;42965;52.846;6.614;2022-11-18T06:47:47;41.88;;;23.83;;
57087;SDS011;42965;52.846;6.614;2022-11-18T06:50:13;37.47;;;21.20;;
57087;SDS011;42965;52.846;6.614;2022-11-18T06:52:40;36.67;;;22.00;;
57087;SDS011;42965;52.846;6.614;2022-11-18T06:55:06;30.38;;;19.60;;
57087;SDS011;42965;52.846;6.614;2022-11-18T06:57:33;36.90;;;20.52;;
57087;SDS011;42965;52.846;6.614;2022-11-18T07:00:00;30.30;;;17.55;;
57087;SDS011;42965;52.846;6.614;2022-11-18T07:02:26;29.30;;;16.85;;
57087;SDS011;42965;52.846;6.614;2022-11-18T07:04:52;28.88;;;17.73;;
57087;SDS011;42965;52.846;6.614;2022-11-18T07:07:19;34.53;;;19.25;;
57087;SDS011;42965;52.846;6.614;2022-11-18T07:09:45;33.53;;;19.50;;
57087;SDS011;42965;52.846;6.614;2022-11-18T07:12:12;36.85;;;20.73;;
57087;SDS011;42965;52.846;6.614;2022-11-18T07:14:38;33.97;;;20.85;;
57087;SDS011;42965;52.846;6.614;2022-11-18T07:17:04;34.30;;;20.80;;
57087;SDS011;42965;52.846;6.614;2022-11-18T07:19:30;35.50;;;18.08;;
57087;SDS011;42965;52.846;6.614;2022-11-18T07:21:57;32.28;;;16.35;;
57087;SDS011;42965;52.846;6.614;2022-11-18T07:24:24;29.90;;;18.27;;
57087;SDS011;42965;52.846;6.614;2022-11-18T07:26:54;37.40;;;22.45;;
57087;SDS011;42965;52.846;6.614;2022-11-18T07:29:21;34.08;;;19.63;;
57087;SDS011;42965;52.846;6.614;2022-11-18T07:31:47;39.67;;;18.83;;
57087;SDS011;42965;52.846;6.614;2022-11-18T07:34:13;34.45;;;17.95;;
57087;SDS011;42965;52.846;6.614;2022-11-18T07:36:40;43.15;;;26.95;;
57087;SDS011;42965;52.846;6.614;2022-11-18T07:39:06;34.10;;;19.35;;
57087;SDS011;42965;52.846;6.614;2022-11-18T07:41:33;43.10;;;21.88;;
57087;SDS011;42965;52.846;6.614;2022-11-18T07:44:01;37.28;;;18.70;;
57087;SDS011;42965;52.846;6.614;2022-11-18T07:46:30;35.55;;;18.33;;
57087;SDS011;42965;52.846;6.614;2022-11-18T07:49:01;26.45;;;15.13;;
57087;SDS011;42965;52.846;6.614;2022-11-18T07:51:31;24.45;;;14.82;;
57087;SDS011;42965;52.846;6.614;2022-11-18T07:54:00;34.75;;;17.20;;
57087;SDS011;42965;52.846;6.614;2022-11-18T07:56:29;29.75;;;16.40;;
57087;SDS011;42965;52.846;6.614;2022-11-18T07:59:06;33.97;;;15.93;;
57087;SDS011;42965;52.846;6.614;2022-11-18T08:01:33;34.42;;;19.40;;
57087;SDS011;42965;52.846;6.614;2022-11-18T08:04:04;32.90;;;16.65;;
57087;SDS011;42965;52.846;6.614;2022-11-18T08:06:32;32.60;;;18.33;;
57087;SDS011;42965;52.846;6.614;2022-11-18T08:09:00;29.65;;;16.13;;
57087;SDS011;42965;52.846;6.614;2022-11-18T08:11:26;30.33;;;16.77;;
57087;SDS011;42965;52.846;6.614;2022-11-18T08:13:53;31.15;;;18.13;;
57087;SDS011;42965;52.846;6.614;2022-11-18T08:16:20;32.22;;;16.55;;
57087;SDS011;42965;52.846;6.614;2022-11-18T08:18:48;29.58;;;17.73;;
57087;SDS011;42965;52.846;6.614;2022-11-18T08:21:15;31.02;;;16.63;;
57087;SDS011;42965;52.846;6.614;2022-11-18T08:23:47;33.15;;;18.30;;
57087;SDS011;42965;52.846;6.614;2022-11-18T08:26:18;35.63;;;18.65;;
57087;SDS011;42965;52.846;6.614;2022-11-18T08:28:45;30.80;;;15.65;;
57087;SDS011;42965;52.846;6.614;2022-11-18T08:31:21;28.25;;;15.95;;
57087;SDS011;42965;52.846;6.614;2022-11-18T08:33:56;35.58;;;17.98;;
57087;SDS011;42965;52.846;6.614;2022-11-18T08:36:24;32.08;;;15.77;;
57087;SDS011;42965;52.846;6.614;2022-11-18T08:38:55;29.40;;;15.00;;
57087;SDS011;42965;52.846;6.614;2022-11-18T08:41:26;26.08;;;14.32;;
57087;SDS011;42965;52.846;6.614;2022-11-18T08:43:54;22.10;;;13.75;;
57087;SDS011;42965;52.846;6.614;2022-11-18T08:46:20;25.63;;;15.23;;
57087;SDS011;42965;52.846;6.614;2022-11-18T08:48:47;29.27;;;15.40;;
57087;SDS011;42965;52.846;6.614;2022-11-18T08:51:14;26.23;;;15.52;;
57087;SDS011;42965;52.846;6.614;2022-11-18T08:53:40;28.02;;;15.90;;
57087;SDS011;42965;52.846;6.614;2022-11-18T08:56:10;31.23;;;17.52;;
57087;SDS011;42965;52.846;6.614;2022-11-18T08:58:40;30.83;;;16.65;;
57087;SDS011;42965;52.846;6.614;2022-11-18T09:01:07;30.42;;;17.55;;
57087;SDS011;42965;52.846;6.614;2022-11-18T09:03:34;29.55;;;17.92;;
57087;SDS011;42965;52.846;6.614;2022-11-18T09:06:19;30.15;;;15.85;;
57087;SDS011;42965;52.846;6.614;2022-11-18T09:08:48;24.10;;;13.82;;
57087;SDS011;42965;52.846;6.614;2022-11-18T09:11:16;26.33;;;16.20;;
57087;SDS011;42965;52.846;6.614;2022-11-18T09:13:44;22.20;;;13.82;;
57087;SDS011;42965;52.846;6.614;2022-11-18T09:16:11;26.65;;;14.88;;
57087;SDS011;42965;52.846;6.614;2022-11-18T09:18:37;20.50;;;13.18;;
57087;SDS011;42965;52.846;6.614;2022-11-18T09:21:05;24.52;;;15.70;;
57087;SDS011;42965;52.846;6.614;2022-11-18T09:23:33;25.73;;;15.23;;
57087;SDS011;42965;52.846;6.614;2022-11-18T09:26:05;25.70;;;16.83;;
57087;SDS011;42965;52.846;6.614;2022-11-18T09:28:33;24.60;;;14.95;;
57087;SDS011;42965;52.846;6.614;2022-11-18T09:31:03;25.35;;;16.55;;
57087;SDS011;42965;52.846;6.614;2022-11-18T09:33:31;26.45;;;16.17;;
57087;SDS011;42965;52.846;6.614;2022-11-18T09:35:57;22.80;;;14.95;;
57087;SDS011;42965;52.846;6.614;2022-11-18T09:38:23;25.95;;;15.00;;
57087;SDS011;42965;52.846;6.614;2022-11-18T09:41:03;24.00;;;13.02;;
57087;SDS011;42965;52.846;6.614;2022-11-18T09:46:21;28.23;;;16.35;;
57087;SDS011;42965;52.846;6.614;2022-11-18T09:49:01;24.58;;;16.83;;
57087;SDS011;42965;52.846;6.614;2022-11-18T09:51:43;28.48;;;17.50;;
57087;SDS011;42965;52.846;6.614;2022-11-18T09:54:33;27.27;;;15.07;;
57087;SDS011;42965;52.846;6.614;2022-11-18T09:57:00;26.92;;;14.95;;
57087;SDS011;42965;52.846;6.614;2022-11-18T09:59:29;24.52;;;15.23;;
57087;SDS011;42965;52.846;6.614;2022-11-18T10:02:18;30.42;;;17.10;;
57087;SDS011;42965;52.846;6.614;2022-11-18T10:05:24;25.85;;;15.77;;
57087;SDS011;42965;52.846;6.614;2022-11-18T10:10:47;27.90;;;17.17;;
57087;SDS011;42965;52.846;6.614;2022-11-18T10:13:49;29.35;;;17.08;;
57087;SDS011;42965;52.846;6.614;2022-11-18T10:19:10;25.38;;;15.07;;
57087;SDS011;42965;52.846;6.614;2022-11-18T10:24:38;27.05;;;15.07;;
57087;SDS011;42965;52.846;6.614;2022-11-18T10:27:09;27.95;;;15.15;;
57087;SDS011;42965;52.846;6.614;2022-11-18T10:29:40;13.63;;;9.07;;
57087;SDS011;42965;52.846;6.614;2022-11-18T10:32:14;20.50;;;12.15;;
57087;SDS011;42965;52.846;6.614;2022-11-18T10:34:47;27.45;;;15.10;;
57087;SDS011;42965;52.846;6.614;2022-11-18T10:37:26;26.67;;;14.95;;
57087;SDS011;42965;52.846;6.614;2022-11-18T10:39:57;27.17;;;16.17;;
57087;SDS011;42965;52.846;6.614;2022-11-18T10:42:41;27.33;;;15.82;;
57087;SDS011;42965;52.846;6.614;2022-11-18T10:52:58;27.45;;;14.57;;
57087;SDS011;42965;52.846;6.614;2022-11-18T10:55:25;27.88;;;15.57;;
57087;SDS011;42965;52.846;6.614;2022-11-18T10:57:54;24.15;;;14.32;;
57087;SDS011;42965;52.846;6.614;2022-11-18T11:00:42;24.17;;;13.07;;
57087;SDS011;42965;52.846;6.614;2022-11-18T11:03:24;23.52;;;13.23;;
57087;SDS011;42965;52.846;6.614;2022-11-18T11:08:48;24.25;;;13.35;;
57087;SDS011;42965;52.846;6.614;2022-11-18T11:11:20;22.63;;;13.00;;
57087;SDS011;42965;52.846;6.614;2022-11-18T11:13:51;23.67;;;13.88;;
57087;SDS011;42965;52.846;6.614;2022-11-18T11:16:22;20.08;;;12.32;;
57087;SDS011;42965;52.846;6.614;2022-11-18T11:18:52;21.05;;;11.82;;
57087;SDS011;42965;52.846;6.614;2022-11-18T11:21:24;18.52;;;11.50;;
57087;SDS011;42965;52.846;6.614;2022-11-18T11:23:52;16.52;;;11.00;;
57087;SDS011;42965;52.846;6.614;2022-11-18T11:37:54;20.98;;;13.10;;
57087;SDS011;42965;52.846;6.614;2022-11-18T11:40:33;20.98;;;13.55;;
57087;SDS011;42965;52.846;6.614;2022-11-18T11:44:05;24.40;;;15.80;;
57087;SDS011;42965;52.846;6.614;2022-11-18T11:49:43;21.08;;;11.88;;
57087;SDS011;42965;52.846;6.614;2022-11-18T11:55:17;18.25;;;12.30;;
57087;SDS011;42965;52.846;6.614;2022-11-18T12:00:47;15.73;;;9.40;;
57087;SDS011;42965;52.846;6.614;2022-11-18T12:06:44;18.25;;;11.27;;
57087;SDS011;42965;52.846;6.614;2022-11-18T12:17:06;20.35;;;12.98;;
57087;SDS011;42965;52.846;6.614;2022-11-18T12:19:50;21.00;;;12.20;;
57087;SDS011;42965;52.846;6.614;2022-11-18T12:22:17;19.73;;;12.55;;
57087;SDS011;42965;52.846;6.614;2022-11-18T12:24:43;19.67;;;11.55;;
57087;SDS011;42965;52.846;6.614;2022-11-18T12:30:04;15.13;;;9.32;;
57087;SDS011;42965;52.846;6.614;2022-11-18T12:32:42;18.92;;;11.40;;
57087;SDS011;42965;52.846;6.614;2022-11-18T12:48:51;20.73;;;12.05;;
57087;SDS011;42965;52.846;6.614;2022-11-18T12:53:53;22.98;;;13.57;;
57087;SDS011;42965;52.846;6.614;2022-11-18T12:56:20;20.33;;;11.90;;
57087;SDS011;42965;52.846;6.614;2022-11-18T12:58:56;21.13;;;13.02;;
57087;SDS011;42965;52.846;6.614;2022-11-18T13:01:28;19.77;;;11.82;;
57087;SDS011;42965;52.846;6.614;2022-11-18T13:06:45;17.35;;;10.23;;
57087;SDS011;42965;52.846;6.614;2022-11-18T13:09:25;18.08;;;11.27;;
57087;SDS011;42965;52.846;6.614;2022-11-18T13:12:04;21.95;;;13.50;;
57087;SDS011;42965;52.846;6.614;2022-11-18T13:14:39;22.40;;;13.25;;
57087;SDS011;42965;52.846;6.614;2022-11-18T13:17:33;21.27;;;13.63;;
57087;SDS011;42965;52.846;6.614;2022-11-18T13:20:27;17.85;;;11.48;;
57087;SDS011;42965;52.846;6.614;2022-11-18T13:26:11;21.20;;;13.57;;
57087;SDS011;42965;52.846;6.614;2022-11-18T13:34:17;25.25;;;14.82;;
57087;SDS011;42965;52.846;6.614;2022-11-18T13:36:46;24.42;;;15.32;;
57087;SDS011;42965;52.846;6.614;2022-11-18T13:39:19;24.05;;;13.18;;
57087;SDS011;42965;52.846;6.614;2022-11-18T13:44:28;25.50;;;14.73;;
57087;SDS011;42965;52.846;6.614;2022-11-18T13:49:52;20.92;;;13.90;;
57087;SDS011;42965;52.846;6.614;2022-11-18T13:52:30;21.95;;;14.02;;
57087;SDS011;42965;52.846;6.614;2022-11-18T13:55:08;22.80;;;12.38;;
57087;SDS011;42965;52.846;6.614;2022-11-18T13:57:44;21.95;;;12.27;;
57087;SDS011;42965;52.846;6.614;2022-11-18T14:00:19;24.90;;;14.30;;
57087;SDS011;42965;52.846;6.614;2022-11-18T14:02:52;22.73;;;14.52;;
57087;SDS011;42965;52.846;6.614;2022-11-18T14:05:22;21.30;;;14.02;;
57087;SDS011;42965;52.846;6.614;2022-11-18T14:07:58;21.58;;;12.60;;
57087;SDS011;42965;52.846;6.614;2022-11-18T14:10:29;19.60;;;12.85;;
57087;SDS011;42965;52.846;6.614;2022-11-18T14:13:22;27.20;;;15.38;;
57087;SDS011;42965;52.846;6.614;2022-11-18T14:16:25;27.50;;;15.27;;
57087;SDS011;42965;52.846;6.614;2022-11-18T14:18:47;22.85;;;14.18;;
57087;SDS011;42965;52.846;6.614;2022-11-18T14:21:26;23.52;;;14.02;;
57087;SDS011;42965;52.846;6.614;2022-11-18T14:23:54;19.25;;;12.55;;
57087;SDS011;42965;52.846;6.614;2022-11-18T14:26:27;17.52;;;11.70;;
57087;SDS011;42965;52.846;6.614;2022-11-18T14:29:00;15.77;;;10.48;;
57087;SDS011;42965;52.846;6.614;2022-11-18T14:31:29;23.30;;;15.98;;
57087;SDS011;42965;52.846;6.614;2022-11-18T14:34:24;18.67;;;10.98;;
57087;SDS011;42965;52.846;6.614;2022-11-18T14:36:51;18.20;;;12.43;;
57087;SDS011;42965;52.846;6.614;2022-11-18T14:41:51;14.27;;;7.95;;
57087;SDS011;42965;52.846;6.614;2022-11-18T14:44:19;17.25;;;10.60;;
57087;SDS011;42965;52.846;6.614;2022-11-18T14:49:20;20.40;;;12.35;;
57087;SDS011;42965;52.846;6.614;2022-11-18T14:51:48;20.15;;;12.07;;
57087;SDS011;42965;52.846;6.614;2022-11-18T14:54:16;21.10;;;11.07;;
57087;SDS011;42965;52.846;6.614;2022-11-18T14:56:45;20.33;;;13.50;;
57087;SDS011;42965;52.846;6.614;2022-11-18T14:59:15;24.80;;;15.20;;
57087;SDS011;42965;52.846;6.614;2022-11-18T15:01:44;19.35;;;11.02;;
57087;SDS011;42965;52.846;6.614;2022-11-18T15:04:13;20.73;;;12.43;;
57087;SDS011;42965;52.846;6.614;2022-11-18T15:06:45;25.48;;;13.40;;
57087;SDS011;42965;52.846;6.614;2022-11-18T15:09:12;16.45;;;10.00;;
57087;SDS011;42965;52.846;6.614;2022-11-18T15:11:38;24.48;;;13.05;;
57087;SDS011;42965;52.846;6.614;2022-11-18T15:14:05;25.45;;;14.38;;
57087;SDS011;42965;52.846;6.614;2022-11-18T15:16:32;20.15;;;13.10;;
57087;SDS011;42965;52.846;6.614;2022-11-18T15:19:01;23.25;;;15.02;;
57087;SDS011;42965;52.846;6.614;2022-11-18T15:21:29;23.67;;;13.70;;
57087;SDS011;42965;52.846;6.614;2022-11-18T15:23:56;24.20;;;13.38;;
57087;SDS011;42965;52.846;6.614;2022-11-18T15:26:23;17.83;;;12.05;;
57087;SDS011;42965;52.846;6.614;2022-11-18T15:28:53;24.35;;;14.77;;
57087;SDS011;42965;52.846;6.614;2022-11-18T15:31:21;20.73;;;13.23;;
57087;SDS011;42965;52.846;6.614;2022-11-18T15:33:49;23.98;;;15.02;;
57087;SDS011;42965;52.846;6.614;2022-11-18T15:36:16;20.23;;;13.07;;
57087;SDS011;42965;52.846;6.614;2022-11-18T15:38:47;14.63;;;8.55;;
57087;SDS011;42965;52.846;6.614;2022-11-18T15:41:16;19.02;;;12.35;;
57087;SDS011;42965;52.846;6.614;2022-11-18T15:43:51;16.63;;;10.25;;
57087;SDS011;42965;52.846;6.614;2022-11-18T15:46:20;19.98;;;13.80;;
57087;SDS011;42965;52.846;6.614;2022-11-18T15:48:52;14.60;;;8.98;;
57087;SDS011;42965;52.846;6.614;2022-11-18T15:51:20;19.85;;;12.10;;
57087;SDS011;42965;52.846;6.614;2022-11-18T15:53:48;20.15;;;11.77;;
57087;SDS011;42965;52.846;6.614;2022-11-18T15:58:44;20.67;;;12.88;;
57087;SDS011;42965;52.846;6.614;2022-11-18T16:01:27;20.35;;;13.70;;
57087;SDS011;42965;52.846;6.614;2022-11-18T16:03:58;25.25;;;15.25;;
57087;SDS011;42965;52.846;6.614;2022-11-18T16:06:24;19.30;;;12.40;;
57087;SDS011;42965;52.846;6.614;2022-11-18T16:08:51;21.70;;;14.32;;
57087;SDS011;42965;52.846;6.614;2022-11-18T16:11:19;16.73;;;11.70;;
57087;SDS011;42965;52.846;6.614;2022-11-18T16:14:05;15.93;;;10.55;;
57087;SDS011;42965;52.846;6.614;2022-11-18T16:16:33;18.88;;;13.63;;
57087;SDS011;42965;52.846;6.614;2022-11-18T16:19:01;17.50;;;10.77;;
57087;SDS011;42965;52.846;6.614;2022-11-18T16:21:31;17.30;;;11.52;;
57087;SDS011;42965;52.846;6.614;2022-11-18T16:23:59;12.93;;;8.27;;
57087;SDS011;42965;52.846;6.614;2022-11-18T16:26:27;16.63;;;11.45;;
57087;SDS011;42965;52.846;6.614;2022-11-18T16:28:57;15.60;;;9.57;;
57087;SDS011;42965;52.846;6.614;2022-11-18T16:31:24;14.43;;;9.93;;
57087;SDS011;42965;52.846;6.614;2022-11-18T16:36:37;16.73;;;10.82;;